sensor_id;sensor_type;location;lat;lon;timestamp;P1;durP1;ratioP1;P2;durP2;ratioP2
22697;SDS011;11516;51.612;7.510;2022-08-25T00:00:41;4.37;;;2.70;;
22697;SDS011;11516;51.612;7.510;2022-08-25T00:03:07;3.65;;;2.70;;
22697;SDS011;11516;51.612;7.510;2022-08-25T00:05:33;6.05;;;2.70;;
22697;SDS011;11516;51.612;7.510;2022-08-25T00:07:59;7.27;;;2.90;;
22697;SDS011;11516;51.612;7.510;2022-08-25T00:10:26;3.58;;;2.72;;
22697;SDS011;11516;51.612;7.510;2022-08-25T00:12:52;5.50;;;3.00;;
22697;SDS011;11516;51.612;7.510;2022-08-25T00:15:18;4.88;;;2.83;;
22697;SDS011;11516;51.612;7.510;2022-08-25T00:17:45;4.72;;;3.00;;
22697;SDS011;11516;51.612;7.510;2022-08-25T00:20:11;5.60;;;3.00;;
22697;SDS011;11516;51.612;7.510;2022-08-25T00:22:36;4.40;;;2.63;;
22697;SDS011;11516;51.612;7.510;2022-08-25T00:25:02;5.47;;;2.93;;
22697;SDS011;11516;51.612;7.510;2022-08-25T00:27:28;6.33;;;3.40;;
22697;SDS011;11516;51.612;7.510;2022-08-25T00:29:53;3.37;;;2.70;;
22697;SDS011;11516;51.612;7.510;2022-08-25T00:32:19;3.80;;;2.70;;
22697;SDS011;11516;51.612;7.510;2022-08-25T00:34:44;4.47;;;2.63;;
22697;SDS011;11516;51.612;7.510;2022-08-25T00:37:10;4.47;;;3.30;;
22697;SDS011;11516;51.612;7.510;2022-08-25T00:39:36;6.27;;;3.00;;
22697;SDS011;11516;51.612;7.510;2022-08-25T00:42:03;4.53;;;2.60;;
22697;SDS011;11516;51.612;7.510;2022-08-25T00:44:30;4.30;;;2.70;;
22697;SDS011;11516;51.612;7.510;2022-08-25T00:46:58;5.27;;;2.90;;
22697;SDS011;11516;51.612;7.510;2022-08-25T00:49:36;3.22;;;2.70;;
22697;SDS011;11516;51.612;7.510;2022-08-25T00:52:22;6.07;;;3.08;;
22697;SDS011;11516;51.612;7.510;2022-08-25T00:54:52;3.10;;;2.80;;
22697;SDS011;11516;51.612;7.510;2022-08-25T00:57:27;4.32;;;2.70;;
22697;SDS011;11516;51.612;7.510;2022-08-25T00:59:56;4.13;;;2.90;;
22697;SDS011;11516;51.612;7.510;2022-08-25T01:02:22;3.93;;;2.77;;
22697;SDS011;11516;51.612;7.510;2022-08-25T01:04:48;4.17;;;2.70;;
22697;SDS011;11516;51.612;7.510;2022-08-25T01:07:14;4.07;;;2.83;;
22697;SDS011;11516;51.612;7.510;2022-08-25T01:09:41;5.20;;;3.00;;
22697;SDS011;11516;51.612;7.510;2022-08-25T01:12:08;5.55;;;3.08;;
22697;SDS011;11516;51.612;7.510;2022-08-25T01:14:34;4.57;;;2.92;;
22697;SDS011;11516;51.612;7.510;2022-08-25T01:17:01;4.53;;;2.70;;
22697;SDS011;11516;51.612;7.510;2022-08-25T01:19:28;5.93;;;2.80;;
22697;SDS011;11516;51.612;7.510;2022-08-25T01:21:57;3.40;;;3.07;;
22697;SDS011;11516;51.612;7.510;2022-08-25T01:27:14;6.57;;;3.63;;
22697;SDS011;11516;51.612;7.510;2022-08-25T01:29:40;5.53;;;3.58;;
22697;SDS011;11516;51.612;7.510;2022-08-25T01:32:07;3.88;;;2.88;;
22697;SDS011;11516;51.612;7.510;2022-08-25T01:34:36;4.63;;;2.85;;
22697;SDS011;11516;51.612;7.510;2022-08-25T01:37:05;5.15;;;2.70;;
22697;SDS011;11516;51.612;7.510;2022-08-25T01:39:31;3.40;;;2.70;;
22697;SDS011;11516;51.612;7.510;2022-08-25T01:44:47;4.15;;;3.15;;
22697;SDS011;11516;51.612;7.510;2022-08-25T01:47:13;5.67;;;2.90;;
22697;SDS011;11516;51.612;7.510;2022-08-25T01:49:39;3.53;;;2.80;;
22697;SDS011;11516;51.612;7.510;2022-08-25T01:52:06;3.33;;;2.80;;
22697;SDS011;11516;51.612;7.510;2022-08-25T01:54:56;3.88;;;2.80;;
22697;SDS011;11516;51.612;7.510;2022-08-25T01:57:22;4.73;;;3.10;;
22697;SDS011;11516;51.612;7.510;2022-08-25T01:59:47;3.85;;;2.70;;
22697;SDS011;11516;51.612;7.510;2022-08-25T02:02:13;3.80;;;3.10;;
22697;SDS011;11516;51.612;7.510;2022-08-25T02:04:38;5.22;;;3.13;;
22697;SDS011;11516;51.612;7.510;2022-08-25T02:07:05;4.43;;;2.88;;
22697;SDS011;11516;51.612;7.510;2022-08-25T02:09:32;4.43;;;3.00;;
22697;SDS011;11516;51.612;7.510;2022-08-25T02:11:58;4.15;;;2.75;;
22697;SDS011;11516;51.612;7.510;2022-08-25T02:14:24;4.68;;;2.83;;
22697;SDS011;11516;51.612;7.510;2022-08-25T02:16:50;5.20;;;3.05;;
22697;SDS011;11516;51.612;7.510;2022-08-25T02:19:18;3.28;;;2.80;;
22697;SDS011;11516;51.612;7.510;2022-08-25T02:21:45;4.97;;;3.28;;
22697;SDS011;11516;51.612;7.510;2022-08-25T02:24:11;5.25;;;3.05;;
22697;SDS011;11516;51.612;7.510;2022-08-25T02:26:37;4.82;;;3.00;;
22697;SDS011;11516;51.612;7.510;2022-08-25T02:29:03;5.37;;;3.10;;
22697;SDS011;11516;51.612;7.510;2022-08-25T02:31:31;4.50;;;3.10;;
22697;SDS011;11516;51.612;7.510;2022-08-25T02:33:56;5.45;;;3.03;;
22697;SDS011;11516;51.612;7.510;2022-08-25T02:36:22;6.55;;;2.90;;
22697;SDS011;11516;51.612;7.510;2022-08-25T02:38:48;4.67;;;3.00;;
22697;SDS011;11516;51.612;7.510;2022-08-25T02:41:18;6.20;;;3.60;;
22697;SDS011;11516;51.612;7.510;2022-08-25T02:43:46;5.13;;;2.90;;
22697;SDS011;11516;51.612;7.510;2022-08-25T02:46:12;5.78;;;3.38;;
22697;SDS011;11516;51.612;7.510;2022-08-25T02:48:39;6.85;;;3.33;;
22697;SDS011;11516;51.612;7.510;2022-08-25T02:51:06;6.32;;;3.20;;
22697;SDS011;11516;51.612;7.510;2022-08-25T02:53:33;4.88;;;3.20;;
22697;SDS011;11516;51.612;7.510;2022-08-25T02:55:59;4.43;;;3.50;;
22697;SDS011;11516;51.612;7.510;2022-08-25T02:58:25;5.73;;;3.30;;
22697;SDS011;11516;51.612;7.510;2022-08-25T03:00:51;5.77;;;3.50;;
22697;SDS011;11516;51.612;7.510;2022-08-25T03:03:17;5.60;;;3.23;;
22697;SDS011;11516;51.612;7.510;2022-08-25T03:05:43;4.00;;;3.22;;
22697;SDS011;11516;51.612;7.510;2022-08-25T03:08:09;3.80;;;3.05;;
22697;SDS011;11516;51.612;7.510;2022-08-25T03:10:35;5.53;;;3.80;;
22697;SDS011;11516;51.612;7.510;2022-08-25T03:13:01;4.00;;;3.10;;
22697;SDS011;11516;51.612;7.510;2022-08-25T03:15:26;7.50;;;3.53;;
22697;SDS011;11516;51.612;7.510;2022-08-25T03:17:53;4.20;;;2.90;;
22697;SDS011;11516;51.612;7.510;2022-08-25T03:20:23;6.38;;;3.40;;
22697;SDS011;11516;51.612;7.510;2022-08-25T03:22:51;7.47;;;3.65;;
22697;SDS011;11516;51.612;7.510;2022-08-25T03:25:17;5.55;;;3.38;;
22697;SDS011;11516;51.612;7.510;2022-08-25T03:28:12;5.28;;;3.20;;
22697;SDS011;11516;51.612;7.510;2022-08-25T03:30:38;4.07;;;3.35;;
22697;SDS011;11516;51.612;7.510;2022-08-25T03:33:04;5.87;;;3.47;;
22697;SDS011;11516;51.612;7.510;2022-08-25T03:35:29;4.97;;;3.40;;
22697;SDS011;11516;51.612;7.510;2022-08-25T03:37:55;5.37;;;3.50;;
22697;SDS011;11516;51.612;7.510;2022-08-25T03:40:22;7.05;;;3.65;;
22697;SDS011;11516;51.612;7.510;2022-08-25T03:42:48;4.70;;;3.70;;
22697;SDS011;11516;51.612;7.510;2022-08-25T03:45:14;5.28;;;3.60;;
22697;SDS011;11516;51.612;7.510;2022-08-25T03:47:41;4.85;;;3.55;;
22697;SDS011;11516;51.612;7.510;2022-08-25T03:50:11;5.07;;;3.58;;
22697;SDS011;11516;51.612;7.510;2022-08-25T03:52:37;5.68;;;3.80;;
22697;SDS011;11516;51.612;7.510;2022-08-25T03:55:04;5.40;;;3.50;;
22697;SDS011;11516;51.612;7.510;2022-08-25T03:57:32;3.93;;;3.57;;
22697;SDS011;11516;51.612;7.510;2022-08-25T03:59:57;5.15;;;3.70;;
22697;SDS011;11516;51.612;7.510;2022-08-25T04:02:23;6.18;;;3.55;;
22697;SDS011;11516;51.612;7.510;2022-08-25T04:04:49;5.63;;;3.78;;
22697;SDS011;11516;51.612;7.510;2022-08-25T04:07:14;4.97;;;3.65;;
22697;SDS011;11516;51.612;7.510;2022-08-25T04:09:40;5.57;;;3.60;;
22697;SDS011;11516;51.612;7.510;2022-08-25T04:12:06;5.03;;;4.00;;
22697;SDS011;11516;51.612;7.510;2022-08-25T04:14:31;6.43;;;3.83;;
22697;SDS011;11516;51.612;7.510;2022-08-25T04:16:57;7.05;;;3.78;;
22697;SDS011;11516;51.612;7.510;2022-08-25T04:19:23;4.70;;;3.67;;
22697;SDS011;11516;51.612;7.510;2022-08-25T04:21:48;5.88;;;3.80;;
22697;SDS011;11516;51.612;7.510;2022-08-25T04:24:15;6.53;;;4.00;;
22697;SDS011;11516;51.612;7.510;2022-08-25T04:26:45;6.13;;;4.00;;
22697;SDS011;11516;51.612;7.510;2022-08-25T04:29:15;7.00;;;3.97;;
22697;SDS011;11516;51.612;7.510;2022-08-25T04:31:43;7.38;;;3.90;;
22697;SDS011;11516;51.612;7.510;2022-08-25T04:34:10;5.43;;;3.88;;
22697;SDS011;11516;51.612;7.510;2022-08-25T04:36:37;5.03;;;4.15;;
22697;SDS011;11516;51.612;7.510;2022-08-25T04:39:03;7.13;;;4.13;;
22697;SDS011;11516;51.612;7.510;2022-08-25T04:41:28;8.55;;;4.40;;
22697;SDS011;11516;51.612;7.510;2022-08-25T04:43:55;6.00;;;4.07;;
22697;SDS011;11516;51.612;7.510;2022-08-25T04:46:24;6.53;;;4.50;;
22697;SDS011;11516;51.612;7.510;2022-08-25T04:48:52;8.83;;;4.97;;
22697;SDS011;11516;51.612;7.510;2022-08-25T04:51:21;6.65;;;4.40;;
22697;SDS011;11516;51.612;7.510;2022-08-25T04:53:49;8.88;;;4.57;;
22697;SDS011;11516;51.612;7.510;2022-08-25T04:56:15;9.93;;;4.93;;
22697;SDS011;11516;51.612;7.510;2022-08-25T04:58:43;7.95;;;4.60;;
22697;SDS011;11516;51.612;7.510;2022-08-25T05:01:15;9.07;;;4.57;;
22697;SDS011;11516;51.612;7.510;2022-08-25T05:03:46;8.25;;;5.25;;
22697;SDS011;11516;51.612;7.510;2022-08-25T05:06:13;7.32;;;5.05;;
22697;SDS011;11516;51.612;7.510;2022-08-25T05:08:38;7.80;;;4.80;;
22697;SDS011;11516;51.612;7.510;2022-08-25T05:11:08;11.37;;;7.37;;
22697;SDS011;11516;51.612;7.510;2022-08-25T05:13:36;8.00;;;5.10;;
22697;SDS011;11516;51.612;7.510;2022-08-25T05:16:02;7.25;;;4.82;;
22697;SDS011;11516;51.612;7.510;2022-08-25T05:18:29;9.40;;;4.80;;
22697;SDS011;11516;51.612;7.510;2022-08-25T05:20:56;9.27;;;4.97;;
22697;SDS011;11516;51.612;7.510;2022-08-25T05:23:25;7.43;;;4.80;;
22697;SDS011;11516;51.612;7.510;2022-08-25T05:25:51;6.73;;;4.77;;
22697;SDS011;11516;51.612;7.510;2022-08-25T05:28:18;7.18;;;4.60;;
22697;SDS011;11516;51.612;7.510;2022-08-25T05:30:44;9.35;;;4.97;;
22697;SDS011;11516;51.612;7.510;2022-08-25T05:33:13;9.27;;;5.20;;
22697;SDS011;11516;51.612;7.510;2022-08-25T05:35:40;6.18;;;4.50;;
22697;SDS011;11516;51.612;7.510;2022-08-25T05:38:06;7.72;;;4.80;;
22697;SDS011;11516;51.612;7.510;2022-08-25T05:40:32;9.73;;;4.70;;
22697;SDS011;11516;51.612;7.510;2022-08-25T05:42:58;6.88;;;4.70;;
22697;SDS011;11516;51.612;7.510;2022-08-25T05:45:23;8.13;;;4.60;;
22697;SDS011;11516;51.612;7.510;2022-08-25T05:47:49;8.20;;;5.13;;
22697;SDS011;11516;51.612;7.510;2022-08-25T05:50:15;8.38;;;4.80;;
22697;SDS011;11516;51.612;7.510;2022-08-25T05:52:41;8.40;;;5.57;;
22697;SDS011;11516;51.612;7.510;2022-08-25T05:55:07;10.00;;;5.20;;
22697;SDS011;11516;51.612;7.510;2022-08-25T05:57:33;9.13;;;5.27;;
22697;SDS011;11516;51.612;7.510;2022-08-25T05:59:59;8.98;;;4.95;;
22697;SDS011;11516;51.612;7.510;2022-08-25T06:02:25;9.07;;;5.20;;
22697;SDS011;11516;51.612;7.510;2022-08-25T06:05:09;7.25;;;4.95;;
22697;SDS011;11516;51.612;7.510;2022-08-25T06:07:36;8.45;;;5.50;;
22697;SDS011;11516;51.612;7.510;2022-08-25T06:10:03;13.07;;;6.82;;
22697;SDS011;11516;51.612;7.510;2022-08-25T06:12:31;9.93;;;4.97;;
22697;SDS011;11516;51.612;7.510;2022-08-25T06:14:58;7.28;;;4.90;;
22697;SDS011;11516;51.612;7.510;2022-08-25T06:17:23;7.90;;;5.10;;
22697;SDS011;11516;51.612;7.510;2022-08-25T06:19:49;11.27;;;5.75;;
22697;SDS011;11516;51.612;7.510;2022-08-25T06:22:14;7.10;;;4.97;;
22697;SDS011;11516;51.612;7.510;2022-08-25T06:24:40;9.03;;;4.70;;
22697;SDS011;11516;51.612;7.510;2022-08-25T06:27:05;10.53;;;5.63;;
22697;SDS011;11516;51.612;7.510;2022-08-25T06:29:31;10.57;;;6.30;;
22697;SDS011;11516;51.612;7.510;2022-08-25T06:31:56;8.53;;;5.37;;
22697;SDS011;11516;51.612;7.510;2022-08-25T06:34:22;7.93;;;4.70;;
22697;SDS011;11516;51.612;7.510;2022-08-25T06:36:47;8.15;;;4.85;;
22697;SDS011;11516;51.612;7.510;2022-08-25T06:39:14;7.07;;;4.60;;
22697;SDS011;11516;51.612;7.510;2022-08-25T06:41:40;9.27;;;4.43;;
22697;SDS011;11516;51.612;7.510;2022-08-25T06:44:06;9.90;;;5.30;;
22697;SDS011;11516;51.612;7.510;2022-08-25T06:46:32;6.17;;;4.90;;
22697;SDS011;11516;51.612;7.510;2022-08-25T06:48:58;6.80;;;4.70;;
22697;SDS011;11516;51.612;7.510;2022-08-25T06:51:24;9.00;;;5.03;;
22697;SDS011;11516;51.612;7.510;2022-08-25T06:53:51;6.03;;;4.73;;
22697;SDS011;11516;51.612;7.510;2022-08-25T06:56:18;8.52;;;4.68;;
22697;SDS011;11516;51.612;7.510;2022-08-25T06:58:45;8.88;;;4.75;;
22697;SDS011;11516;51.612;7.510;2022-08-25T07:01:17;9.55;;;5.50;;
22697;SDS011;11516;51.612;7.510;2022-08-25T07:03:49;8.83;;;4.83;;
22697;SDS011;11516;51.612;7.510;2022-08-25T07:06:15;9.00;;;4.53;;
22697;SDS011;11516;51.612;7.510;2022-08-25T07:08:42;7.30;;;4.57;;
22697;SDS011;11516;51.612;7.510;2022-08-25T07:11:09;5.13;;;4.45;;
22697;SDS011;11516;51.612;7.510;2022-08-25T07:13:35;5.83;;;4.40;;
22697;SDS011;11516;51.612;7.510;2022-08-25T07:16:02;6.47;;;4.40;;
22697;SDS011;11516;51.612;7.510;2022-08-25T07:18:29;7.13;;;4.50;;
22697;SDS011;11516;51.612;7.510;2022-08-25T07:20:56;7.30;;;5.00;;
22697;SDS011;11516;51.612;7.510;2022-08-25T07:23:22;6.90;;;4.60;;
22697;SDS011;11516;51.612;7.510;2022-08-25T07:25:48;9.68;;;4.88;;
22697;SDS011;11516;51.612;7.510;2022-08-25T07:28:15;6.28;;;4.13;;
22697;SDS011;11516;51.612;7.510;2022-08-25T07:30:44;7.53;;;4.40;;
22697;SDS011;11516;51.612;7.510;2022-08-25T07:33:10;7.07;;;4.78;;
22697;SDS011;11516;51.612;7.510;2022-08-25T07:35:39;8.77;;;4.50;;
22697;SDS011;11516;51.612;7.510;2022-08-25T07:38:05;7.78;;;4.80;;
22697;SDS011;11516;51.612;7.510;2022-08-25T07:40:37;7.32;;;4.47;;
22697;SDS011;11516;51.612;7.510;2022-08-25T07:43:06;7.65;;;4.25;;
22697;SDS011;11516;51.612;7.510;2022-08-25T07:45:32;8.65;;;4.38;;
22697;SDS011;11516;51.612;7.510;2022-08-25T07:48:04;7.30;;;4.50;;
22697;SDS011;11516;51.612;7.510;2022-08-25T07:50:34;5.88;;;4.10;;
22697;SDS011;11516;51.612;7.510;2022-08-25T07:53:02;6.07;;;4.10;;
22697;SDS011;11516;51.612;7.510;2022-08-25T07:55:29;6.43;;;4.53;;
22697;SDS011;11516;51.612;7.510;2022-08-25T07:57:55;7.40;;;4.82;;
22697;SDS011;11516;51.612;7.510;2022-08-25T08:00:24;7.82;;;4.60;;
22697;SDS011;11516;51.612;7.510;2022-08-25T08:02:53;7.93;;;5.28;;
22697;SDS011;11516;51.612;7.510;2022-08-25T08:05:22;6.13;;;4.93;;
22697;SDS011;11516;51.612;7.510;2022-08-25T08:07:48;7.18;;;4.70;;
22697;SDS011;11516;51.612;7.510;2022-08-25T08:10:14;9.57;;;4.40;;
22697;SDS011;11516;51.612;7.510;2022-08-25T08:12:40;7.22;;;4.97;;
22697;SDS011;11516;51.612;7.510;2022-08-25T08:15:06;6.97;;;4.40;;
22697;SDS011;11516;51.612;7.510;2022-08-25T08:17:32;10.95;;;5.68;;
22697;SDS011;11516;51.612;7.510;2022-08-25T08:19:58;7.33;;;4.87;;
22697;SDS011;11516;51.612;7.510;2022-08-25T08:22:24;9.70;;;4.70;;
22697;SDS011;11516;51.612;7.510;2022-08-25T08:24:50;8.75;;;4.95;;
22697;SDS011;11516;51.612;7.510;2022-08-25T08:27:15;19.07;;;12.07;;
22697;SDS011;11516;51.612;7.510;2022-08-25T08:29:41;7.80;;;4.90;;
22697;SDS011;11516;51.612;7.510;2022-08-25T08:32:09;8.82;;;4.70;;
22697;SDS011;11516;51.612;7.510;2022-08-25T08:34:37;9.88;;;6.70;;
22697;SDS011;11516;51.612;7.510;2022-08-25T08:37:04;7.15;;;5.05;;
22697;SDS011;11516;51.612;7.510;2022-08-25T08:39:33;12.95;;;5.55;;
22697;SDS011;11516;51.612;7.510;2022-08-25T08:44:57;8.30;;;4.75;;
22697;SDS011;11516;51.612;7.510;2022-08-25T08:50:48;17.98;;;5.60;;
22697;SDS011;11516;51.612;7.510;2022-08-25T08:56:13;5.43;;;4.60;;
22697;SDS011;11516;51.612;7.510;2022-08-25T09:01:12;10.25;;;4.80;;
22697;SDS011;11516;51.612;7.510;2022-08-25T09:03:53;9.43;;;4.97;;
22697;SDS011;11516;51.612;7.510;2022-08-25T09:09:19;9.20;;;4.80;;
22697;SDS011;11516;51.612;7.510;2022-08-25T09:22:27;9.50;;;5.85;;
22697;SDS011;11516;51.612;7.510;2022-08-25T09:25:26;9.32;;;5.20;;
22697;SDS011;11516;51.612;7.510;2022-08-25T09:28:17;11.70;;;7.35;;
22697;SDS011;11516;51.612;7.510;2022-08-25T09:30:59;6.70;;;4.93;;
22697;SDS011;11516;51.612;7.510;2022-08-25T09:33:28;7.18;;;5.07;;
22697;SDS011;11516;51.612;7.510;2022-08-25T09:35:56;8.55;;;6.35;;
22697;SDS011;11516;51.612;7.510;2022-08-25T09:38:22;8.20;;;5.57;;
22697;SDS011;11516;51.612;7.510;2022-08-25T09:40:49;8.07;;;5.27;;
22697;SDS011;11516;51.612;7.510;2022-08-25T09:43:22;8.38;;;5.30;;
22697;SDS011;11516;51.612;7.510;2022-08-25T09:45:59;7.57;;;4.90;;
22697;SDS011;11516;51.612;7.510;2022-08-25T09:48:48;5.72;;;5.03;;
22697;SDS011;11516;51.612;7.510;2022-08-25T09:51:23;9.50;;;5.50;;
22697;SDS011;11516;51.612;7.510;2022-08-25T09:53:57;6.68;;;5.30;;
22697;SDS011;11516;51.612;7.510;2022-08-25T09:56:32;13.15;;;5.28;;
22697;SDS011;11516;51.612;7.510;2022-08-25T09:59:21;6.90;;;4.72;;
22697;SDS011;11516;51.612;7.510;2022-08-25T10:01:52;8.52;;;5.47;;
22697;SDS011;11516;51.612;7.510;2022-08-25T10:04:30;7.72;;;5.35;;
22697;SDS011;11516;51.612;7.510;2022-08-25T10:06:58;10.20;;;7.53;;
22697;SDS011;11516;51.612;7.510;2022-08-25T10:12:17;7.00;;;4.80;;
22697;SDS011;11516;51.612;7.510;2022-08-25T10:15:15;7.72;;;4.57;;
22697;SDS011;11516;51.612;7.510;2022-08-25T10:17:52;7.23;;;4.67;;
22697;SDS011;11516;51.612;7.510;2022-08-25T10:20:21;12.52;;;4.90;;
22697;SDS011;11516;51.612;7.510;2022-08-25T10:22:54;9.20;;;4.82;;
22697;SDS011;11516;51.612;7.510;2022-08-25T10:25:43;5.43;;;4.50;;
22697;SDS011;11516;51.612;7.510;2022-08-25T10:28:26;9.75;;;4.53;;
22697;SDS011;11516;51.612;7.510;2022-08-25T10:39:03;8.48;;;4.55;;
22697;SDS011;11516;51.612;7.510;2022-08-25T10:41:32;7.45;;;4.53;;
22697;SDS011;11516;51.612;7.510;2022-08-25T10:50:27;8.15;;;4.57;;
22697;SDS011;11516;51.612;7.510;2022-08-25T10:52:57;6.93;;;3.90;;
22697;SDS011;11516;51.612;7.510;2022-08-25T10:58:18;5.25;;;4.60;;
22697;SDS011;11516;51.612;7.510;2022-08-25T11:01:16;6.93;;;4.60;;
22697;SDS011;11516;51.612;7.510;2022-08-25T11:04:04;7.43;;;5.13;;
22697;SDS011;11516;51.612;7.510;2022-08-25T11:06:38;5.15;;;3.92;;
22697;SDS011;11516;51.612;7.510;2022-08-25T11:09:27;18.00;;;4.80;;
22697;SDS011;11516;51.612;7.510;2022-08-25T11:12:13;4.97;;;4.13;;
22697;SDS011;11516;51.612;7.510;2022-08-25T11:14:45;7.93;;;4.57;;
22697;SDS011;11516;51.612;7.510;2022-08-25T11:17:13;9.52;;;4.50;;
22697;SDS011;11516;51.612;7.510;2022-08-25T11:19:45;5.60;;;3.80;;
22697;SDS011;11516;51.612;7.510;2022-08-25T11:22:16;7.07;;;4.10;;
22697;SDS011;11516;51.612;7.510;2022-08-25T11:25:01;7.55;;;4.55;;
22697;SDS011;11516;51.612;7.510;2022-08-25T11:27:53;6.40;;;4.20;;
22697;SDS011;11516;51.612;7.510;2022-08-25T11:30:27;7.20;;;3.70;;
22697;SDS011;11516;51.612;7.510;2022-08-25T11:32:53;7.77;;;3.77;;
22697;SDS011;11516;51.612;7.510;2022-08-25T11:35:25;7.75;;;3.92;;
22697;SDS011;11516;51.612;7.510;2022-08-25T11:44:31;5.38;;;4.00;;
22697;SDS011;11516;51.612;7.510;2022-08-25T11:47:24;5.85;;;4.13;;
22697;SDS011;11516;51.612;7.510;2022-08-25T11:55:18;8.25;;;3.53;;
22697;SDS011;11516;51.612;7.510;2022-08-25T11:57:48;6.38;;;3.20;;
22697;SDS011;11516;51.612;7.510;2022-08-25T12:03:43;6.22;;;3.05;;
22697;SDS011;11516;51.612;7.510;2022-08-25T12:14:46;4.18;;;3.00;;
22697;SDS011;11516;51.612;7.510;2022-08-25T12:32:18;6.47;;;3.58;;
22697;SDS011;11516;51.612;7.510;2022-08-25T12:37:20;3.53;;;3.03;;
22697;SDS011;11516;51.612;7.510;2022-08-25T12:47:46;4.50;;;3.10;;
22697;SDS011;11516;51.612;7.510;2022-08-25T12:50:34;5.03;;;3.45;;
22697;SDS011;11516;51.612;7.510;2022-08-25T12:56:00;5.15;;;3.40;;
22697;SDS011;11516;51.612;7.510;2022-08-25T12:58:49;4.57;;;3.25;;
22697;SDS011;11516;51.612;7.510;2022-08-25T13:06:38;4.70;;;4.20;;
22697;SDS011;11516;51.612;7.510;2022-08-25T13:12:17;6.00;;;3.58;;
22697;SDS011;11516;51.612;7.510;2022-08-25T13:14:44;4.72;;;3.45;;
22697;SDS011;11516;51.612;7.510;2022-08-25T13:17:29;10.23;;;4.00;;
22697;SDS011;11516;51.612;7.510;2022-08-25T13:22:44;9.23;;;3.80;;
22697;SDS011;11516;51.612;7.510;2022-08-25T13:25:22;5.10;;;3.80;;
22697;SDS011;11516;51.612;7.510;2022-08-25T13:27:50;7.63;;;3.67;;
22697;SDS011;11516;51.612;7.510;2022-08-25T13:30:40;6.78;;;4.07;;
22697;SDS011;11516;51.612;7.510;2022-08-25T13:36:00;6.07;;;3.63;;
22697;SDS011;11516;51.612;7.510;2022-08-25T13:38:46;16.40;;;6.13;;
22697;SDS011;11516;51.612;7.510;2022-08-25T13:41:17;8.23;;;4.07;;
22697;SDS011;11516;51.612;7.510;2022-08-25T13:43:47;6.75;;;3.58;;
22697;SDS011;11516;51.612;7.510;2022-08-25T13:46:18;5.05;;;3.70;;
22697;SDS011;11516;51.612;7.510;2022-08-25T13:48:45;4.80;;;3.70;;
22697;SDS011;11516;51.612;7.510;2022-08-25T13:51:24;5.72;;;3.63;;
22697;SDS011;11516;51.612;7.510;2022-08-25T13:53:55;5.20;;;3.88;;
22697;SDS011;11516;51.612;7.510;2022-08-25T13:56:32;6.55;;;4.07;;
22697;SDS011;11516;51.612;7.510;2022-08-25T13:59:20;6.80;;;5.85;;
22697;SDS011;11516;51.612;7.510;2022-08-25T14:01:54;5.32;;;3.72;;
22697;SDS011;11516;51.612;7.510;2022-08-25T14:10:00;5.80;;;3.83;;
22697;SDS011;11516;51.612;7.510;2022-08-25T14:15:55;6.82;;;4.55;;
22697;SDS011;11516;51.612;7.510;2022-08-25T14:18:48;6.13;;;4.03;;
22697;SDS011;11516;51.612;7.510;2022-08-25T14:21:16;6.90;;;3.60;;
22697;SDS011;11516;51.612;7.510;2022-08-25T14:23:44;6.68;;;4.03;;
22697;SDS011;11516;51.612;7.510;2022-08-25T14:26:10;4.80;;;3.58;;
22697;SDS011;11516;51.612;7.510;2022-08-25T14:28:36;4.20;;;3.60;;
22697;SDS011;11516;51.612;7.510;2022-08-25T14:31:07;5.55;;;4.10;;
22697;SDS011;11516;51.612;7.510;2022-08-25T14:33:39;4.78;;;3.70;;
22697;SDS011;11516;51.612;7.510;2022-08-25T14:36:08;5.03;;;3.72;;
22697;SDS011;11516;51.612;7.510;2022-08-25T14:38:34;5.78;;;3.70;;
22697;SDS011;11516;51.612;7.510;2022-08-25T14:41:02;4.70;;;3.50;;
22697;SDS011;11516;51.612;7.510;2022-08-25T14:43:29;5.63;;;3.75;;
22697;SDS011;11516;51.612;7.510;2022-08-25T14:45:55;6.30;;;4.00;;
22697;SDS011;11516;51.612;7.510;2022-08-25T14:50:57;11.57;;;4.60;;
22697;SDS011;11516;51.612;7.510;2022-08-25T14:53:23;8.57;;;4.05;;
22697;SDS011;11516;51.612;7.510;2022-08-25T14:55:50;10.93;;;3.90;;
22697;SDS011;11516;51.612;7.510;2022-08-25T14:58:19;7.13;;;3.72;;
22697;SDS011;11516;51.612;7.510;2022-08-25T15:00:46;7.95;;;3.70;;
22697;SDS011;11516;51.612;7.510;2022-08-25T15:03:26;7.85;;;3.70;;
22697;SDS011;11516;51.612;7.510;2022-08-25T15:05:56;6.03;;;3.88;;
22697;SDS011;11516;51.612;7.510;2022-08-25T15:08:22;5.40;;;3.60;;
22697;SDS011;11516;51.612;7.510;2022-08-25T15:11:09;4.70;;;3.78;;
22697;SDS011;11516;51.612;7.510;2022-08-25T15:13:38;6.13;;;3.80;;
22697;SDS011;11516;51.612;7.510;2022-08-25T15:16:09;5.20;;;3.78;;
22697;SDS011;11516;51.612;7.510;2022-08-25T15:18:40;4.13;;;3.72;;
22697;SDS011;11516;51.612;7.510;2022-08-25T15:21:07;5.57;;;3.90;;
22697;SDS011;11516;51.612;7.510;2022-08-25T15:23:33;6.03;;;4.28;;
22697;SDS011;11516;51.612;7.510;2022-08-25T15:26:01;13.65;;;10.65;;
22697;SDS011;11516;51.612;7.510;2022-08-25T15:28:27;7.50;;;5.47;;
22697;SDS011;11516;51.612;7.510;2022-08-25T15:30:55;6.20;;;4.30;;
22697;SDS011;11516;51.612;7.510;2022-08-25T15:33:21;5.43;;;4.20;;
22697;SDS011;11516;51.612;7.510;2022-08-25T15:35:47;6.83;;;3.87;;
22697;SDS011;11516;51.612;7.510;2022-08-25T15:38:16;5.50;;;4.50;;
22697;SDS011;11516;51.612;7.510;2022-08-25T15:40:42;5.07;;;3.97;;
22697;SDS011;11516;51.612;7.510;2022-08-25T15:43:08;6.20;;;4.37;;
22697;SDS011;11516;51.612;7.510;2022-08-25T15:45:34;8.30;;;4.32;;
22697;SDS011;11516;51.612;7.510;2022-08-25T15:48:00;5.97;;;5.13;;
22697;SDS011;11516;51.612;7.510;2022-08-25T15:50:25;5.47;;;4.90;;
22697;SDS011;11516;51.612;7.510;2022-08-25T15:52:51;13.05;;;10.13;;
22697;SDS011;11516;51.612;7.510;2022-08-25T15:55:17;7.07;;;5.67;;
22697;SDS011;11516;51.612;7.510;2022-08-25T15:57:43;6.80;;;4.50;;
22697;SDS011;11516;51.612;7.510;2022-08-25T16:00:09;6.53;;;4.13;;
22697;SDS011;11516;51.612;7.510;2022-08-25T16:02:41;7.53;;;4.53;;
22697;SDS011;11516;51.612;7.510;2022-08-25T16:05:07;5.55;;;4.35;;
22697;SDS011;11516;51.612;7.510;2022-08-25T16:07:34;6.78;;;4.30;;
22697;SDS011;11516;51.612;7.510;2022-08-25T16:10:00;6.88;;;4.43;;
22697;SDS011;11516;51.612;7.510;2022-08-25T16:12:26;7.80;;;4.40;;
22697;SDS011;11516;51.612;7.510;2022-08-25T16:14:52;5.13;;;4.30;;
22697;SDS011;11516;51.612;7.510;2022-08-25T16:17:18;4.78;;;4.18;;
22697;SDS011;11516;51.612;7.510;2022-08-25T16:19:44;4.70;;;4.17;;
22697;SDS011;11516;51.612;7.510;2022-08-25T16:22:13;6.57;;;4.32;;
22697;SDS011;11516;51.612;7.510;2022-08-25T16:24:40;4.85;;;4.13;;
22697;SDS011;11516;51.612;7.510;2022-08-25T16:27:11;6.03;;;4.45;;
22697;SDS011;11516;51.612;7.510;2022-08-25T16:29:38;6.10;;;4.43;;
22697;SDS011;11516;51.612;7.510;2022-08-25T16:32:07;6.03;;;4.25;;
22697;SDS011;11516;51.612;7.510;2022-08-25T16:34:34;5.97;;;4.38;;
22697;SDS011;11516;51.612;7.510;2022-08-25T16:37:00;8.02;;;5.22;;
22697;SDS011;11516;51.612;7.510;2022-08-25T16:39:26;6.90;;;5.17;;
22697;SDS011;11516;51.612;7.510;2022-08-25T16:41:52;4.97;;;4.20;;
22697;SDS011;11516;51.612;7.510;2022-08-25T16:44:17;5.80;;;4.30;;
22697;SDS011;11516;51.612;7.510;2022-08-25T16:46:44;6.28;;;4.10;;
22697;SDS011;11516;51.612;7.510;2022-08-25T16:49:11;5.88;;;4.82;;
22697;SDS011;11516;51.612;7.510;2022-08-25T16:51:38;5.38;;;4.80;;
22697;SDS011;11516;51.612;7.510;2022-08-25T16:54:05;7.95;;;5.05;;
22697;SDS011;11516;51.612;7.510;2022-08-25T16:56:50;5.35;;;4.47;;
22697;SDS011;11516;51.612;7.510;2022-08-25T16:59:15;5.70;;;4.20;;
22697;SDS011;11516;51.612;7.510;2022-08-25T17:01:41;4.87;;;4.30;;
22697;SDS011;11516;51.612;7.510;2022-08-25T17:04:07;5.45;;;4.47;;
22697;SDS011;11516;51.612;7.510;2022-08-25T17:06:35;5.47;;;4.57;;
22697;SDS011;11516;51.612;7.510;2022-08-25T17:09:05;7.77;;;4.30;;